Skydive Austral Airstrip

MU-0002 · Rivière du Rempart, 毛里求斯

罗盘
风向 的 风向 160°
风: 9 kt, 3 beaufort

添加一条跑道以查看侧风和逆风信息。

添置 跑道
0 ft 1.000 2.000 3.000 4.000 5.000
Cloud Cloud
FEW 3.400
METAR FMEP 280900Z AUTO 16009KT 9999 FEW034 30/24 Q1009 NOSIG

METAR Skydive Austral Airstrip - MU-0002

Skydive Austral Airstrip是,毛里求斯中的小机场。 该领域的国际民航组织标志是MU-0002.

这份报告是针对2023年1月28日 13:00, 当地时间在Pierrefonds Airport进行的。

机场观察

风向为160°,速度为9 kt。

可见度为10 km 或者更多。

有几云在3.400 ft的高度。 没有观察到天花板。

温度和风寒是30 °C。 热指数为35。 露点为24 °C,相对湿度为70%。 海平面上的气压为1009 hPa (QNH)。

白天

今天,太阳从05:50升起,在18:53降落。 这适用于Skydive Austral Airstrip,世界夏令时可能有所不同。 当地时间与世界标准时间之间的时差为+4 小时。 当前,没有夏令时有效。

公司介绍

我们没有关于这个机场的公司信息。

体会

到Vliegles.nl去找飞行课程,跳伞和其他飞行体验。 浏览页面,了解Skydive Austral Airstrip附近所有可用的活动。 你也可以使用搜索功能来寻找你所在地附近的特定飞行课程、跳伞或其他飞行体验。

乌云

3.400 ft FEW 几云

温度 & 天气

温度 30 °C
露点 24 °C
相对湿度 70%
热度指数 35 °C
Kp-index 0 (0-9)

白天

日出
05:57
中午
12:31
日落
19:04 (5:44)

小工具

你想在你的网站上有一个关于Skydive Austral Airstrip的当前航空天气(METAR)的小部件吗?

显示HTML代码

我们和第三方通过cookies跟踪您在我们网站上的互联网行为。如果你继续,我们认为你同意我们的饼干政策